Bei Facebook empfehlenBei Twitter postenGoogle plusPinterest

Das Wetter im Erzgebirge am 03.01.2016

Wetter und Klima am 03.01.2016 Holzhau im Erzgebirge (630m ü.NN)
Letzte gemessene Temperatur und Uhrzeit der Messung23:45:00 Uhr-7.90 °C
Temperatur (Maximum / Höchstwert) und Uhrzeit der Messung00:15:00 Uhr-4.10 °C
Temperatur (Minimum / Tiefstwert) und Uhrzeit der Messung23:45:00-7.90 °C
Errechneter Absolutwert der Temperaturschwankungen zwischen Tmin und Tmax des Tages3.80 K
Errechnete Tagesmitteltemperatur-6.43021 °C
Gesamt - Niederschlag des Tages (in flüssiger Form)0.00 Liter / m²
Luftdruck (Maximum / Höchstwert) und Zeitpunkt der Messung00:15:00 Uhr1011.20 hPa
Luftdruck (Minimum / Tiefstwert) und Zeitpunkt der Messung23:45:00 Uhr997.60 hPa
Errechneter Absolutwert der Luftdruckschwankungen des Tages13.60 hPa
Höchste gemessene Windgeschwindigkeit und Uhrzeit der Messung23:30:00 Uhr183.60 km/h
Errechnete Windhäufigkeit in Relation zu den Messwerten des Tages77.08333 %
Niedrigste Windkühle (Windchill) und Zeitpunkt der Messung23:30:00 Uhr-25.20 °C
Taupunkt (Maximum / Höchstwert) und Uhrzeit der Messung00:15:00 Uhr-5.00 °C
Taupunkt (Minimum / Tiefstwert) und Uhrzeit der Messung23:45:00-9.30 °C
Anzahl der automatisch eingelesenen Messwerte 96

Detaillierte Wetter- und Klima- Messwerte für den 03.01.2016 in Holzhau im Erzgebirge (630m ü.NN)
ZeitTemperaturLuftdruckRel. LuftfeuchteWindWindrichtungWindchillTaupunktNiederschlag l/m²
23:45:00-7.90 °C997.60 hPa91.00 %-9.30 °C 
23:30:00-7.90 °C997.70 hPa91.00 %183.60 km/hO-25.20 °C-9.30 °C 
23:15:00-7.80 °C998.30 hPa91.00 %2.52 km/hSO-7.80 °C-9.20 °C 
23:00:00-7.80 °C998.70 hPa91.00 %10.44 km/hO-12.80 °C-9.20 °C 
22:45:00-7.80 °C998.80 hPa91.00 %-9.20 °C 
22:30:00-7.70 °C999.10 hPa92.00 %-8.90 °C 
22:15:00-7.70 °C999.30 hPa92.00 %2.88 km/hSO-7.70 °C-8.90 °C 
22:00:00-7.80 °C999.60 hPa91.00 %10.08 km/hOSO-12.70 °C-9.20 °C 
21:45:00-7.70 °C1000.00 hPa92.00 %10.44 km/hSO-12.70 °C-8.90 °C 
21:30:00-7.70 °C1000.40 hPa92.00 %3.96 km/hS-7.70 °C-8.90 °C 
21:15:00-7.60 °C1000.80 hPa92.00 %12.96 km/hOSO-13.30 °C-8.80 °C 
21:00:00-7.60 °C1001.00 hPa92.00 %3.96 km/hONO-7.60 °C-8.80 °C 
20:45:00-7.60 °C1001.40 hPa92.00 %-8.80 °C 
20:30:00-7.60 °C1001.70 hPa92.00 %2.88 km/hSO-7.60 °C-8.80 °C 
20:15:00-7.60 °C1002.10 hPa92.00 %3.60 km/hNO-7.60 °C-8.80 °C 
20:00:00-7.60 °C1002.40 hPa92.00 %4.68 km/hONO-7.60 °C-8.80 °C 
19:45:00-7.60 °C1002.60 hPa92.00 %-8.80 °C 
19:30:00-7.60 °C1002.90 hPa92.00 %-8.80 °C 
19:15:00-7.60 °C1003.30 hPa92.00 %1.44 km/hONO-7.60 °C-8.80 °C 
19:00:00-7.60 °C1003.50 hPa92.00 %14.76 km/hSSW-13.70 °C-8.80 °C 
18:45:00-7.50 °C1003.50 hPa92.00 %3.24 km/hSW-7.50 °C-8.70 °C 
18:30:00-7.50 °C1003.90 hPa92.00 %12.60 km/hONO-13.10 °C-8.70 °C 
18:15:00-7.60 °C1004.00 hPa92.00 %8.64 km/hOSO-11.90 °C-8.80 °C 
18:00:00-7.60 °C1004.10 hPa92.00 %8.28 km/hSO-11.80 °C-8.80 °C 
17:45:00-7.50 °C1004.40 hPa92.00 %-8.70 °C 
17:30:00-7.40 °C1004.90 hPa92.00 %7.20 km/hOSO-11.10 °C-8.60 °C 
17:15:00-7.40 °C1005.20 hPa92.00 %12.60 km/hSO-12.90 °C-8.60 °C 
17:00:00-7.30 °C1005.10 hPa92.00 %5.40 km/hSO-10.10 °C-8.50 °C 
16:45:00-7.20 °C1005.30 hPa92.00 %8.28 km/hNO-11.30 °C-8.40 °C 
16:30:00-7.10 °C1005.40 hPa92.00 %8.28 km/hS-11.20 °C-8.30 °C 
16:15:00-7.10 °C1005.30 hPa92.00 %-8.30 °C 
16:00:00-7.00 °C1005.30 hPa92.00 %7.56 km/hOSO-10.80 °C-8.20 °C 
15:45:00-6.90 °C1005.30 hPa92.00 %-8.10 °C 
15:30:00-6.90 °C1005.30 hPa92.00 %-8.10 °C 
15:15:00-6.80 °C1005.40 hPa92.00 %6.12 km/hOSO-9.90 °C-8.00 °C 
15:00:00-6.70 °C1005.60 hPa92.00 %-7.90 °C 
14:45:00-6.40 °C1005.70 hPa92.00 %5.76 km/hONO-9.30 °C-7.60 °C 
14:30:00-6.50 °C1006.00 hPa92.00 %12.60 km/hO-11.80 °C-7.70 °C 
14:15:00-6.50 °C1006.40 hPa92.00 %6.48 km/hSO-9.70 °C-7.70 °C 
14:00:00-6.40 °C1006.70 hPa92.00 %11.16 km/hSSO-11.30 °C-7.60 °C 
13:45:00-6.20 °C1006.70 hPa93.00 %3.60 km/hSSO-6.20 °C-7.30 °C 
13:30:00-6.10 °C1006.90 hPa93.00 %12.96 km/hSSO-11.40 °C-7.20 °C 
13:15:00-6.10 °C1007.00 hPa93.00 %3.24 km/hSO-6.10 °C-7.20 °C 
13:00:00-5.90 °C1007.10 hPa93.00 %9.36 km/hSSO-10.20 °C-7.00 °C 
12:45:00-5.90 °C1007.10 hPa93.00 %12.60 km/hSSO-11.10 °C-7.00 °C 
12:30:00-6.00 °C1007.20 hPa93.00 %10.44 km/hSSO-10.60 °C-7.10 °C 
12:15:00-6.10 °C1007.70 hPa93.00 %11.16 km/hOSO-11.00 °C-7.20 °C 
12:00:00-6.10 °C1007.80 hPa93.00 %-7.20 °C 
11:45:00-6.30 °C1007.90 hPa93.00 %2.16 km/hOSO-6.30 °C-7.40 °C 
11:30:00-6.40 °C1008.10 hPa93.00 %9.36 km/hOSO-10.70 °C-7.50 °C 
11:15:00-6.40 °C1008.40 hPa93.00 %2.52 km/hSO-6.40 °C-7.50 °C 
11:00:00-6.50 °C1008.40 hPa93.00 %-7.60 °C 
10:45:00-6.50 °C1008.70 hPa93.00 %7.20 km/hSO-10.00 °C-7.60 °C 
10:30:00-6.40 °C1008.70 hPa93.00 %6.84 km/hSO-9.80 °C-7.50 °C 
10:15:00-6.40 °C1008.60 hPa94.00 %2.16 km/hSO-6.40 °C-7.30 °C 
10:00:00-6.40 °C1008.90 hPa94.00 %24.12 km/hOSO-14.00 °C-7.30 °C 
09:45:00-6.60 °C1008.90 hPa94.00 %3.24 km/hSSO-6.60 °C-7.50 °C 
09:30:00-6.60 °C1009.00 hPa94.00 %3.60 km/hOSO-6.60 °C-7.50 °C 
09:15:00-6.60 °C1009.10 hPa94.00 %4.32 km/hSO-6.60 °C-7.50 °C 
09:00:00-6.60 °C1009.30 hPa94.00 %-7.50 °C 
08:45:00-6.60 °C1009.40 hPa94.00 %-7.50 °C 
08:30:00-6.50 °C1009.40 hPa94.00 %-7.40 °C 
08:15:00-6.40 °C1009.70 hPa94.00 %3.60 km/hOSO-6.40 °C-7.30 °C 
08:00:00-6.40 °C1009.60 hPa94.00 %3.60 km/hSSO-6.40 °C-7.30 °C 
07:45:00-6.40 °C1009.90 hPa94.00 %2.16 km/hSO-6.40 °C-7.30 °C 
07:30:00-6.20 °C1009.80 hPa94.00 %6.84 km/hOSO-9.50 °C-7.10 °C 
07:15:00-6.20 °C1009.80 hPa94.00 %-7.10 °C 
07:00:00-6.20 °C1009.80 hPa94.00 %-7.10 °C 
06:45:00-6.10 °C1009.90 hPa94.00 %10.44 km/hNO-10.70 °C-7.00 °C 
06:30:00-6.10 °C1009.80 hPa94.00 %1.08 km/hONO-6.10 °C-7.00 °C 
06:15:00-6.10 °C1009.80 hPa94.00 %2.88 km/hONO-6.10 °C-7.00 °C 
06:00:00-6.10 °C1009.80 hPa94.00 %7.56 km/hSSO-9.70 °C-7.00 °C 
05:45:00-6.00 °C1009.90 hPa94.00 %5.76 km/hSO-8.80 °C-6.90 °C 
05:30:00-5.90 °C1009.80 hPa94.00 %9.00 km/hSSO-10.00 °C-6.80 °C 
05:15:00-5.80 °C1009.80 hPa94.00 %5.04 km/hSSO-8.20 °C-6.70 °C 
05:00:00-5.80 °C1009.90 hPa94.00 %-6.70 °C 
04:45:00-5.70 °C1010.00 hPa94.00 %10.44 km/hOSO-10.30 °C-6.60 °C 
04:30:00-5.60 °C1010.30 hPa94.00 %14.04 km/hNO-11.10 °C-6.50 °C 
04:15:00-5.60 °C1010.30 hPa94.00 %9.36 km/hSO-9.80 °C-6.50 °C 
04:00:00-5.40 °C1010.40 hPa94.00 %6.12 km/hNO-8.30 °C-6.30 °C 
03:45:00-5.30 °C1010.30 hPa94.00 %-6.20 °C 
03:30:00-5.20 °C1010.40 hPa94.00 %3.60 km/hOSO-5.20 °C-6.10 °C 
03:15:00-5.10 °C1010.40 hPa94.00 %2.52 km/hOSO-5.10 °C-6.00 °C 
03:00:00-5.10 °C1010.50 hPa94.00 %13.32 km/hNNW-10.30 °C-6.00 °C 
02:45:00-5.10 °C1010.60 hPa94.00 %-6.00 °C 
02:30:00-5.00 °C1010.60 hPa94.00 %4.32 km/hOSO-5.00 °C-5.90 °C 
02:15:00-4.90 °C1010.60 hPa94.00 %10.44 km/hOSO-9.30 °C-5.80 °C 
02:00:00-4.70 °C1010.60 hPa94.00 %8.28 km/hOSO-8.40 °C-5.60 °C 
01:45:00-4.60 °C1010.60 hPa94.00 %3.24 km/hSO-4.60 °C-5.50 °C 
01:30:00-4.50 °C1010.70 hPa94.00 %12.60 km/hOSO-9.40 °C-5.40 °C 
01:15:00-4.40 °C1010.70 hPa94.00 %-5.30 °C 
01:00:00-4.40 °C1010.70 hPa94.00 %183.60 km/hOSO-19.80 °C-5.30 °C 
00:45:00-4.30 °C1011.00 hPa94.00 %9.00 km/hONO-8.10 °C-5.20 °C 
00:30:00-4.20 °C1011.10 hPa94.00 %3.60 km/hO-4.20 °C-5.10 °C 
00:15:00-4.10 °C1011.20 hPa94.00 %5.40 km/hOSO-6.40 °C-5.00 °C 
00:00:00-4.10 °C1011.20 hPa94.00 %15.84 km/hSSO-9.60 °C-5.00 °C 

Permanenter Link zu dieser Seite: Wetter im Erzgebirge am 03.01.2016
Performance-Info: Die Erstellung der Seite / Statistik(en) / Tabelle(n) erforderte 5 Datenbankserver-Abfrage(n) und dauerte 99 Millisekunden. (Dieser Messwert ist von der Gesamt-Auslastung des Servers abhängig.)
Erzgebirge - Wetter | Erzgebirge - Wetter (Mobilgeräte) | Komplette Klimadatenbank